createdAt,value
2023-03-01T07:00:25.869Z,0.00
2023-03-01T07:00:58.330Z,0.00
2023-03-01T07:01:30.774Z,0.00
2023-03-01T07:02:03.164Z,0.00
2023-03-01T07:02:35.683Z,0.00
2023-03-01T07:03:08.190Z,0.00
2023-03-01T07:03:40.564Z,0.00
2023-03-01T07:04:12.988Z,0.00
2023-03-01T07:04:45.439Z,0.00
2023-03-01T07:05:17.861Z,0.00
2023-03-01T07:05:50.345Z,0.00
2023-03-01T07:06:22.788Z,0.00
2023-03-01T07:06:55.305Z,0.00
2023-03-01T07:07:27.758Z,0.00
2023-03-01T07:08:00.238Z,0.00
2023-03-01T07:08:32.649Z,0.00
2023-03-01T07:09:05.113Z,0.00
2023-03-01T07:09:37.564Z,0.00
2023-03-01T07:10:10.025Z,0.00
2023-03-01T07:10:42.493Z,0.00
2023-03-01T07:11:14.932Z,0.00
2023-03-01T07:11:47.393Z,0.00
2023-03-01T07:12:19.833Z,0.00
2023-03-01T07:12:52.404Z,1.00
2023-03-01T07:13:24.860Z,1.00
2023-03-01T07:13:57.315Z,1.00
2023-03-01T07:14:29.740Z,1.00
2023-03-01T07:15:02.221Z,1.00
2023-03-01T07:15:34.652Z,1.00
2023-03-01T07:16:07.132Z,1.00
2023-03-01T07:16:39.588Z,1.00
2023-03-01T07:17:12.030Z,1.00
2023-03-01T07:17:44.521Z,1.00
2023-03-01T07:18:16.986Z,1.00
2023-03-01T07:18:49.457Z,1.00
2023-03-01T07:19:21.910Z,1.00
2023-03-01T07:19:54.404Z,1.00
2023-03-01T07:20:26.918Z,1.00
2023-03-01T07:20:59.382Z,1.00
2023-03-01T07:21:31.808Z,1.00
2023-03-01T07:22:04.354Z,1.00
2023-03-01T07:22:36.798Z,1.00
2023-03-01T07:23:09.278Z,1.00
2023-03-01T07:23:41.745Z,1.00
2023-03-01T07:24:15.076Z,1.00
2023-03-01T07:24:47.517Z,1.00
2023-03-01T07:25:19.969Z,1.00
2023-03-01T07:25:52.486Z,1.00
2023-03-01T07:26:26.201Z,1.00
2023-03-01T07:26:57.373Z,1.00
2023-03-01T07:27:29.823Z,1.00
2023-03-01T07:28:02.313Z,2.00
2023-03-01T07:28:34.768Z,2.00
2023-03-01T07:29:07.236Z,2.00
2023-03-01T07:29:39.686Z,2.00
2023-03-01T07:30:12.183Z,2.00
2023-03-01T07:30:44.598Z,2.00
2023-03-01T07:31:17.116Z,3.00
2023-03-01T07:31:49.642Z,3.00
2023-03-01T07:32:22.164Z,3.00
2023-03-01T07:32:55.684Z,3.00
2023-03-01T07:33:27.060Z,3.00
2023-03-01T07:33:59.677Z,3.00
2023-03-01T07:34:32.121Z,3.00
2023-03-01T07:35:04.596Z,3.00
2023-03-01T07:35:37.084Z,4.00
2023-03-01T07:36:09.510Z,4.00
2023-03-01T07:36:42.015Z,4.00
2023-03-01T07:37:14.477Z,4.00
2023-03-01T07:37:46.921Z,4.00
2023-03-01T07:38:19.422Z,4.00
2023-03-01T07:38:51.867Z,4.00
2023-03-01T07:39:24.323Z,5.00
2023-03-01T07:39:56.773Z,5.00
2023-03-01T07:40:29.303Z,5.00
2023-03-01T07:41:01.770Z,5.00
2023-03-01T07:41:34.237Z,5.00
2023-03-01T07:42:06.722Z,5.00
2023-03-01T07:42:39.179Z,5.00
2023-03-01T07:43:11.628Z,5.00
2023-03-01T07:43:44.098Z,5.00
2023-03-01T07:44:16.670Z,5.00
2023-03-01T07:44:49.142Z,5.00
2023-03-01T07:45:21.656Z,5.00
2023-03-01T07:45:54.171Z,5.00
2023-03-01T07:46:26.523Z,5.00
2023-03-01T07:46:58.954Z,5.00
2023-03-01T07:47:31.437Z,5.00
2023-03-01T07:48:03.944Z,5.00
2023-03-01T07:48:36.404Z,5.00
2023-03-01T07:49:08.872Z,5.00
2023-03-01T07:49:41.326Z,5.00
2023-03-01T07:50:13.994Z,5.00
2023-03-01T07:50:46.962Z,5.00
2023-03-01T07:51:21.154Z,5.00
2023-03-01T07:51:51.851Z,5.00
2023-03-01T07:52:24.313Z,6.00
2023-03-01T07:52:56.760Z,6.00
2023-03-01T07:53:29.255Z,6.00
2023-03-01T07:54:01.729Z,6.00
2023-03-01T07:54:34.201Z,6.00
2023-03-01T07:55:06.667Z,6.00
2023-03-01T07:55:39.187Z,6.00
2023-03-01T07:56:11.648Z,6.00
2023-03-01T07:56:44.092Z,6.00
2023-03-01T07:57:16.561Z,6.00
2023-03-01T07:57:49.086Z,6.00
2023-03-01T07:58:21.546Z,6.00
2023-03-01T07:58:54.008Z,6.00
2023-03-01T07:59:26.455Z,6.00
2023-03-01T07:59:58.938Z,6.00
2023-03-01T08:00:31.390Z,6.00
2023-03-01T08:01:03.848Z,6.00
2023-03-01T08:01:36.337Z,6.00
2023-03-01T08:02:08.866Z,6.00
2023-03-01T08:02:41.290Z,6.00
2023-03-01T08:03:13.830Z,6.00
2023-03-01T08:03:46.286Z,6.00
2023-03-01T08:04:18.718Z,6.00
2023-03-01T08:04:51.208Z,6.00
2023-03-01T08:05:23.626Z,6.00
2023-03-01T08:05:56.106Z,6.00
2023-03-01T08:06:28.655Z,6.00
2023-03-01T08:07:01.058Z,6.00
2023-03-01T08:07:33.584Z,6.00
2023-03-01T08:08:06.052Z,6.00
2023-03-01T08:08:38.552Z,6.00
2023-03-01T08:09:11.015Z,6.00
2023-03-01T08:09:43.499Z,6.00
2023-03-01T08:10:15.996Z,6.00
2023-03-01T08:10:48.476Z,6.00
2023-03-01T08:11:21.155Z,6.00
2023-03-01T08:11:53.461Z,6.00
2023-03-01T08:12:25.898Z,6.00
2023-03-01T08:12:58.364Z,6.00
2023-03-01T08:13:30.826Z,6.00
2023-03-01T08:14:03.293Z,6.00
2023-03-01T08:14:35.745Z,6.00
2023-03-01T08:15:08.220Z,6.00
2023-03-01T08:15:40.680Z,6.00
2023-03-01T08:16:13.208Z,7.00
2023-03-01T08:16:45.677Z,7.00
2023-03-01T08:17:18.109Z,7.00
2023-03-01T08:17:50.571Z,7.00
2023-03-01T08:18:23.033Z,7.00
2023-03-01T08:18:55.504Z,7.00
2023-03-01T08:19:27.971Z,7.00
2023-03-01T08:20:00.470Z,7.00
2023-03-01T08:20:32.938Z,7.00
2023-03-01T08:21:05.410Z,7.00
2023-03-01T08:21:37.878Z,7.00
2023-03-01T08:22:10.379Z,7.00
2023-03-01T08:22:42.829Z,7.00
2023-03-01T08:23:15.295Z,7.00
2023-03-01T08:23:47.894Z,7.00
2023-03-01T08:24:20.358Z,7.00
2023-03-01T08:24:52.922Z,7.00
2023-03-01T08:25:25.425Z,7.00
2023-03-01T08:25:57.876Z,7.00
2023-03-01T08:26:30.594Z,7.00
2023-03-01T08:27:02.853Z,7.00
2023-03-01T08:27:35.306Z,7.00
2023-03-01T08:28:07.759Z,8.00
2023-03-01T08:28:40.260Z,8.00
2023-03-01T08:29:12.734Z,8.00
2023-03-01T08:29:45.287Z,8.00
2023-03-01T08:30:17.920Z,8.00
2023-03-01T08:30:50.367Z,8.00
2023-03-01T08:31:22.977Z,8.00
2023-03-01T08:31:55.451Z,8.00
2023-03-01T08:32:27.866Z,8.00
2023-03-01T08:33:00.266Z,8.00
2023-03-01T08:33:32.783Z,8.00
2023-03-01T08:34:05.297Z,8.00
2023-03-01T08:34:37.758Z,8.00
2023-03-01T08:35:10.229Z,8.00
2023-03-01T08:35:42.715Z,8.00
2023-03-01T08:36:15.124Z,8.00
2023-03-01T08:36:47.640Z,8.00
2023-03-01T08:37:20.067Z,8.00
2023-03-01T08:37:52.530Z,8.00
2023-03-01T08:38:24.971Z,8.00
2023-03-01T08:38:57.428Z,8.00
2023-03-01T08:39:29.929Z,8.00
2023-03-01T08:40:02.387Z,8.00
2023-03-01T08:40:34.855Z,8.00
2023-03-01T08:41:07.307Z,9.00
2023-03-01T08:41:39.784Z,9.00
2023-03-01T08:42:12.236Z,9.00
2023-03-01T08:42:44.721Z,9.00
2023-03-01T08:43:17.167Z,9.00
2023-03-01T08:43:49.662Z,9.00
2023-03-01T08:44:22.138Z,9.00
2023-03-01T08:44:54.617Z,9.00
2023-03-01T08:45:27.067Z,9.00
2023-03-01T08:45:59.593Z,9.00
2023-03-01T08:46:32.325Z,9.00
2023-03-01T08:47:04.456Z,9.00
2023-03-01T08:47:36.945Z,9.00
2023-03-01T08:48:09.388Z,9.00
2023-03-01T08:48:41.846Z,9.00
2023-03-01T08:49:14.292Z,9.00
2023-03-01T08:49:46.761Z,9.00
2023-03-01T08:50:19.221Z,9.00
2023-03-01T08:50:51.678Z,9.00
2023-03-01T08:51:24.157Z,9.00
2023-03-01T08:51:56.624Z,9.00
2023-03-01T08:52:29.101Z,9.00
2023-03-01T08:53:01.548Z,9.00
2023-03-01T08:53:33.998Z,9.00
2023-03-01T08:54:06.511Z,9.00
2023-03-01T08:54:38.975Z,9.00
2023-03-01T08:55:11.422Z,9.00
2023-03-01T08:55:43.888Z,9.00
2023-03-01T08:56:16.354Z,9.00
2023-03-01T08:56:48.847Z,10.00
2023-03-01T08:57:21.285Z,10.00
2023-03-01T08:57:53.775Z,10.00
2023-03-01T08:58:26.222Z,10.00
2023-03-01T08:58:58.700Z,10.00
2023-03-01T08:59:31.179Z,10.00
2023-03-01T09:00:03.642Z,10.00
2023-03-01T09:00:36.115Z,10.00
2023-03-01T09:01:08.604Z,10.00
2023-03-01T09:01:41.062Z,10.00
2023-03-01T09:02:13.568Z,10.00
2023-03-01T09:02:46.002Z,10.00
2023-03-01T09:03:18.503Z,10.00
2023-03-01T09:03:51.009Z,10.00
2023-03-01T09:04:23.458Z,10.00
2023-03-01T09:04:55.930Z,10.00
2023-03-01T09:05:28.367Z,10.00
2023-03-01T09:06:00.829Z,10.00
2023-03-01T09:06:33.495Z,10.00
2023-03-01T09:07:05.766Z,10.00
2023-03-01T09:07:38.241Z,10.00
2023-03-01T09:08:10.771Z,10.00
2023-03-01T09:08:43.314Z,10.00
2023-03-01T09:09:15.758Z,10.00
2023-03-01T09:09:48.225Z,10.00
2023-03-01T09:10:20.721Z,10.00
2023-03-01T09:10:53.204Z,10.00
2023-03-01T09:11:25.713Z,10.00
2023-03-01T09:11:58.174Z,10.00
2023-03-01T09:12:30.631Z,10.00
2023-03-01T09:13:03.122Z,10.00
2023-03-01T09:13:35.575Z,10.00
2023-03-01T09:14:08.070Z,10.00
2023-03-01T09:14:40.548Z,10.00
2023-03-01T09:15:13.033Z,10.00
2023-03-01T09:15:45.461Z,10.00
2023-03-01T09:16:17.960Z,10.00
2023-03-01T09:16:50.447Z,10.00
2023-03-01T09:17:22.862Z,10.00
2023-03-01T09:17:55.356Z,10.00
2023-03-01T09:18:27.823Z,10.00
2023-03-01T09:19:00.316Z,10.00
2023-03-01T09:19:32.815Z,10.00
2023-03-01T09:20:05.302Z,10.00
2023-03-01T09:20:37.772Z,10.00
2023-03-01T09:21:10.238Z,10.00
2023-03-01T09:21:42.714Z,10.00
2023-03-01T09:22:15.205Z,10.00
2023-03-01T09:22:47.685Z,10.00
2023-03-01T09:23:20.134Z,10.00
2023-03-01T09:23:52.602Z,10.00
2023-03-01T09:24:25.099Z,10.00
2023-03-01T09:24:57.548Z,11.00
2023-03-01T09:25:30.071Z,10.00
2023-03-01T09:26:02.491Z,11.00
2023-03-01T09:26:34.981Z,10.00
2023-03-01T09:27:07.444Z,11.00
2023-03-01T09:27:39.909Z,11.00
2023-03-01T09:28:24.162Z,11.00
2023-03-01T09:28:44.839Z,11.00
2023-03-01T09:29:17.389Z,11.00
2023-03-01T09:29:49.840Z,11.00
2023-03-01T09:30:22.405Z,11.00
2023-03-01T09:30:54.885Z,10.00
2023-03-01T09:31:27.368Z,10.00
2023-03-01T09:31:59.859Z,10.00
2023-03-01T09:32:32.321Z,11.00
2023-03-01T09:33:04.818Z,11.00
2023-03-01T09:33:37.296Z,11.00
2023-03-01T09:34:09.769Z,11.00
2023-03-01T09:34:42.224Z,11.00
2023-03-01T09:35:14.691Z,11.00
2023-03-01T09:35:47.270Z,11.00
2023-03-01T09:36:20.581Z,11.00
2023-03-01T09:36:53.071Z,11.00
2023-03-01T09:37:25.501Z,11.00
2023-03-01T09:37:57.946Z,11.00
2023-03-01T09:38:30.408Z,11.00
2023-03-01T09:39:02.882Z,10.00
2023-03-01T09:39:35.357Z,10.00
2023-03-01T09:40:07.822Z,10.00
2023-03-01T09:40:40.323Z,10.00
2023-03-01T09:41:12.802Z,10.00
2023-03-01T09:41:45.272Z,10.00
2023-03-01T09:42:17.755Z,10.00
2023-03-01T09:42:50.253Z,10.00
2023-03-01T09:43:22.708Z,10.00
2023-03-01T09:43:56.479Z,10.00
2023-03-01T09:44:27.633Z,10.00
2023-03-01T09:45:00.129Z,10.00
2023-03-01T09:45:32.597Z,10.00
2023-03-01T09:46:05.141Z,10.00
2023-03-01T09:46:37.690Z,10.00
2023-03-01T09:47:10.955Z,10.00
2023-03-01T09:47:43.475Z,10.00
2023-03-01T09:48:15.940Z,10.00
2023-03-01T09:48:48.456Z,10.00
2023-03-01T09:49:20.924Z,10.00
2023-03-01T09:49:53.431Z,10.00
2023-03-01T09:50:25.991Z,10.00
2023-03-01T09:50:58.474Z,10.00
2023-03-01T09:51:30.994Z,10.00
2023-03-01T09:52:03.460Z,10.00
2023-03-01T09:52:35.953Z,10.00
2023-03-01T09:53:08.411Z,10.00
2023-03-01T09:53:40.884Z,10.00
2023-03-01T09:54:13.361Z,9.00
2023-03-01T09:54:45.826Z,9.00
2023-03-01T09:55:18.351Z,9.00
2023-03-01T09:55:50.826Z,9.00
2023-03-01T09:56:23.293Z,9.00
2023-03-01T09:56:55.790Z,9.00
2023-03-01T09:57:28.275Z,9.00
2023-03-01T09:58:00.827Z,9.00
2023-03-01T09:58:33.244Z,9.00
2023-03-01T09:59:05.710Z,9.00
2023-03-01T09:59:38.241Z,9.00
2023-03-01T10:00:10.716Z,9.00
2023-03-01T10:00:43.186Z,9.00
2023-03-01T10:01:15.642Z,9.00
2023-03-01T10:01:48.109Z,9.00
2023-03-01T10:02:20.610Z,9.00
2023-03-01T10:02:53.107Z,9.00
2023-03-01T10:03:25.575Z,9.00
2023-03-01T10:03:58.112Z,9.00
2023-03-01T10:04:30.523Z,8.00
2023-03-01T10:05:03.286Z,8.00
2023-03-01T10:05:35.695Z,8.00
2023-03-01T10:06:08.163Z,8.00
2023-03-01T10:06:40.646Z,8.00
2023-03-01T10:07:13.105Z,8.00
2023-03-01T10:07:45.614Z,8.00
2023-03-01T10:08:18.091Z,8.00
2023-03-01T10:08:50.548Z,8.00
2023-03-01T10:09:23.004Z,8.00
2023-03-01T10:09:55.481Z,8.00
2023-03-01T10:10:27.940Z,8.00
2023-03-01T10:11:00.397Z,8.00
2023-03-01T10:11:32.876Z,8.00
2023-03-01T10:12:05.335Z,8.00
2023-03-01T10:12:37.866Z,8.00
2023-03-01T10:13:10.336Z,8.00
2023-03-01T10:13:42.815Z,8.00
2023-03-01T10:14:15.294Z,8.00
2023-03-01T10:14:47.749Z,8.00
2023-03-01T10:15:20.306Z,8.00
2023-03-01T10:15:52.894Z,8.00
2023-03-01T10:16:25.266Z,8.00
2023-03-01T10:16:57.740Z,8.00
2023-03-01T10:17:30.215Z,8.00
2023-03-01T10:18:02.727Z,8.00
2023-03-01T10:18:35.229Z,8.00
2023-03-01T10:19:07.690Z,8.00
2023-03-01T10:19:40.156Z,8.00
2023-03-01T10:20:12.619Z,8.00
2023-03-01T10:20:45.098Z,8.00
2023-03-01T10:21:17.559Z,8.00
2023-03-01T10:21:50.011Z,8.00
2023-03-01T10:22:22.495Z,8.00
2023-03-01T10:22:54.973Z,8.00
2023-03-01T10:23:27.519Z,8.00
2023-03-01T10:23:59.979Z,8.00
2023-03-01T10:24:32.467Z,8.00
2023-03-01T10:25:04.951Z,8.00
2023-03-01T10:25:37.473Z,7.00
2023-03-01T10:26:09.966Z,7.00
2023-03-01T10:26:42.444Z,7.00
2023-03-01T10:27:14.875Z,7.00
2023-03-01T10:27:47.362Z,6.00
2023-03-01T10:28:19.819Z,6.00
2023-03-01T10:28:52.302Z,6.00
2023-03-01T10:29:24.777Z,6.00
2023-03-01T10:29:57.229Z,5.00
2023-03-01T10:30:29.739Z,5.00
2023-03-01T10:31:02.252Z,5.00
2023-03-01T10:31:34.805Z,5.00
2023-03-01T10:32:07.201Z,5.00
2023-03-01T10:32:39.777Z,5.00
2023-03-01T10:33:12.289Z,5.00
2023-03-01T10:33:44.776Z,5.00
2023-03-01T10:34:17.279Z,5.00
2023-03-01T10:34:49.770Z,5.00
2023-03-01T10:35:22.301Z,5.00
2023-03-01T10:35:54.811Z,5.00
2023-03-01T10:36:27.357Z,5.00
2023-03-01T10:36:59.886Z,5.00
2023-03-01T10:37:32.374Z,5.00
2023-03-01T10:38:04.881Z,5.00
2023-03-01T10:38:37.449Z,5.00
2023-03-01T10:39:09.978Z,5.00
2023-03-01T10:39:42.580Z,4.00
2023-03-01T10:40:15.102Z,4.00
2023-03-01T10:40:47.658Z,4.00
2023-03-01T10:41:20.160Z,4.00
2023-03-01T10:41:52.661Z,4.00
2023-03-01T10:42:25.125Z,4.00
2023-03-01T10:42:57.634Z,4.00
2023-03-01T10:43:30.128Z,3.00
2023-03-01T10:44:02.610Z,3.00
2023-03-01T10:44:35.105Z,3.00
2023-03-01T10:45:07.568Z,3.00
2023-03-01T10:45:40.109Z,3.00
2023-03-01T10:46:12.620Z,3.00
2023-03-01T10:46:45.122Z,3.00
2023-03-01T10:47:17.549Z,2.00
2023-03-01T10:47:50.039Z,2.00
2023-03-01T10:48:22.500Z,2.00
2023-03-01T10:48:55.028Z,2.00
2023-03-01T10:49:27.505Z,2.00
2023-03-01T10:50:00.035Z,2.00
2023-03-01T10:50:32.512Z,2.00
2023-03-01T10:51:05.015Z,2.00
2023-03-01T10:51:37.496Z,2.00
2023-03-01T10:52:09.970Z,2.00
2023-03-01T10:52:42.477Z,2.00
2023-03-01T10:53:14.970Z,2.00
2023-03-01T10:53:47.455Z,2.00
2023-03-01T10:54:19.935Z,2.00
2023-03-01T10:54:52.424Z,2.00
2023-03-01T10:55:24.937Z,2.00
2023-03-01T10:55:57.465Z,2.00
2023-03-01T10:56:29.940Z,2.00
2023-03-01T10:57:02.439Z,2.00
2023-03-01T10:57:34.975Z,2.00
2023-03-01T10:58:07.442Z,2.00
2023-03-01T10:58:39.933Z,2.00
2023-03-01T10:59:12.428Z,2.00
2023-03-01T10:59:44.935Z,2.00
2023-03-01T11:00:17.441Z,2.00
2023-03-01T11:00:50.042Z,2.00
2023-03-01T11:01:22.604Z,2.00
2023-03-01T11:01:55.035Z,2.00
2023-03-01T11:02:27.528Z,2.00
2023-03-01T11:02:59.974Z,1.00
2023-03-01T11:03:32.442Z,1.00
2023-03-01T11:04:04.925Z,1.00
2023-03-01T11:04:37.452Z,1.00
2023-03-01T11:05:09.904Z,1.00
2023-03-01T11:05:42.385Z,1.00
2023-03-01T11:06:14.889Z,1.00
2023-03-01T11:06:47.363Z,1.00
2023-03-01T11:07:19.912Z,1.00
2023-03-01T11:07:52.458Z,1.00
2023-03-01T11:08:24.967Z,1.00
2023-03-01T11:08:57.466Z,1.00
2023-03-01T11:09:29.939Z,1.00
2023-03-01T11:10:02.424Z,1.00
2023-03-01T11:10:34.936Z,1.00
2023-03-01T11:11:07.503Z,1.00
2023-03-01T11:11:40.092Z,1.00
2023-03-01T11:12:12.559Z,1.00
2023-03-01T11:12:45.048Z,1.00
2023-03-01T11:13:17.590Z,1.00
2023-03-01T11:13:50.097Z,1.00
2023-03-01T11:14:27.608Z,1.00
2023-03-01T11:14:55.126Z,1.00
2023-03-01T11:15:27.650Z,1.00
2023-03-01T11:16:00.185Z,1.00
2023-03-01T11:16:32.688Z,1.00
2023-03-01T11:17:05.132Z,1.00
2023-03-01T11:17:47.977Z,1.00
2023-03-01T11:18:14.257Z,1.00
2023-03-01T11:18:48.123Z,1.00
2023-03-01T11:19:15.056Z,1.00
2023-03-01T11:20:00.896Z,1.00
2023-03-01T11:20:19.989Z,1.00
2023-03-01T11:20:52.477Z,1.00
2023-03-01T11:21:24.969Z,1.00
2023-03-01T11:21:57.528Z,1.00
2023-03-01T11:22:29.991Z,1.00
2023-03-01T11:23:02.436Z,1.00
2023-03-01T11:23:34.891Z,1.00
2023-03-01T11:24:07.382Z,1.00
2023-03-01T11:24:41.125Z,1.00
2023-03-01T11:25:12.399Z,1.00
2023-03-01T11:25:44.903Z,1.00
2023-03-01T11:26:17.390Z,1.00
2023-03-01T11:26:49.864Z,1.00
2023-03-01T11:27:22.364Z,1.00
2023-03-01T11:27:54.871Z,1.00
2023-03-01T11:28:28.263Z,1.00
2023-03-01T11:28:59.832Z,1.00
2023-03-01T11:29:37.250Z,1.00
2023-03-01T11:30:04.806Z,1.00
2023-03-01T11:30:37.357Z,1.00
2023-03-01T11:31:09.934Z,1.00
2023-03-01T11:31:55.548Z,1.00
2023-03-01T11:32:14.875Z,1.00
2023-03-01T11:32:47.403Z,1.00
2023-03-01T11:33:19.833Z,1.00
2023-03-01T11:33:52.307Z,1.00
2023-03-01T11:34:24.796Z,1.00
2023-03-01T11:34:57.307Z,1.00
2023-03-01T11:35:29.863Z,1.00
2023-03-01T11:36:02.425Z,1.00
2023-03-01T11:36:34.865Z,1.00
2023-03-01T11:37:07.391Z,1.00
2023-03-01T11:37:39.894Z,1.00
2023-03-01T11:38:12.401Z,1.00
2023-03-01T11:38:44.961Z,1.00
2023-03-01T11:39:17.409Z,1.00
2023-03-01T11:39:49.881Z,1.00
2023-03-01T11:40:22.394Z,1.00
2023-03-01T11:40:56.131Z,1.00
2023-03-01T11:41:27.503Z,1.00
2023-03-01T11:42:03.635Z,1.00
2023-03-01T11:42:32.496Z,1.00
2023-03-01T11:43:05.050Z,1.00
2023-03-01T11:43:37.418Z,1.00
2023-03-01T11:44:09.908Z,1.00
2023-03-01T11:44:42.405Z,1.00
2023-03-01T11:45:14.919Z,1.00
2023-03-01T11:45:47.384Z,1.00
2023-03-01T11:46:19.900Z,1.00
2023-03-01T11:46:52.465Z,1.00
2023-03-01T11:47:25.042Z,1.00
2023-03-01T11:47:57.341Z,1.00
2023-03-01T11:48:43.375Z,1.00
2023-03-01T11:49:02.503Z,1.00
2023-03-01T11:49:34.990Z,1.00
2023-03-01T11:50:07.463Z,1.00
2023-03-01T11:50:39.943Z,1.00
2023-03-01T11:51:12.457Z,1.00
2023-03-01T11:51:44.932Z,1.00
2023-03-01T11:52:17.441Z,1.00
2023-03-01T11:52:49.875Z,1.00
2023-03-01T11:53:22.388Z,1.00
2023-03-01T11:53:54.818Z,1.00
2023-03-01T11:54:27.304Z,1.00
2023-03-01T11:54:59.787Z,1.00
2023-03-01T11:55:32.304Z,1.00
2023-03-01T11:56:04.743Z,1.00
2023-03-01T11:56:37.232Z,1.00
2023-03-01T11:57:09.728Z,1.00
2023-03-01T11:57:44.136Z,1.00
2023-03-01T11:58:14.665Z,1.00
2023-03-01T11:58:47.148Z,1.00
2023-03-01T11:59:19.628Z,1.00
2023-03-01T11:59:52.115Z,1.00
2023-03-01T12:00:24.646Z,1.00
2023-03-01T12:00:57.208Z,1.00
2023-03-01T12:01:29.728Z,1.00
2023-03-01T12:02:02.217Z,1.00
2023-03-01T12:02:34.763Z,1.00
2023-03-01T12:03:07.202Z,1.00
2023-03-01T12:03:39.706Z,1.00
2023-03-01T12:04:12.274Z,1.00
2023-03-01T12:04:44.768Z,1.00
2023-03-01T12:05:17.236Z,1.00
2023-03-01T12:05:49.809Z,1.00
2023-03-01T12:06:22.244Z,1.00
2023-03-01T12:06:56.611Z,1.00
2023-03-01T12:07:27.194Z,1.00
2023-03-01T12:07:59.667Z,1.00
2023-03-01T12:08:32.149Z,1.00
2023-03-01T12:09:04.651Z,1.00
2023-03-01T12:09:37.119Z,1.00
2023-03-01T12:10:10.469Z,1.00
2023-03-01T12:10:42.698Z,1.00
2023-03-01T12:11:15.207Z,1.00
2023-03-01T12:11:47.715Z,1.00
2023-03-01T12:12:20.243Z,1.00
2023-03-01T12:12:52.701Z,1.00
2023-03-01T12:13:25.221Z,1.00
2023-03-01T12:13:57.687Z,1.00
2023-03-01T12:14:30.171Z,1.00
2023-03-01T12:15:02.789Z,1.00
2023-03-01T12:15:35.197Z,1.00
2023-03-01T12:16:07.685Z,1.00
2023-03-01T12:16:40.297Z,1.00
2023-03-01T12:17:32.146Z,1.00
2023-03-01T12:18:04.591Z,1.00
2023-03-01T12:18:37.110Z,1.00
2023-03-01T12:19:09.545Z,1.00
2023-03-01T12:19:42.040Z,1.00
2023-03-01T12:20:14.505Z,1.00
2023-03-01T12:20:46.961Z,1.00
2023-03-01T12:21:19.461Z,1.00
2023-03-01T12:21:51.959Z,1.00
2023-03-01T12:22:24.449Z,1.00
2023-03-01T12:22:56.899Z,1.00
2023-03-01T12:23:29.426Z,1.00
2023-03-01T12:24:02.015Z,1.00
2023-03-01T12:24:34.437Z,1.00
2023-03-01T12:25:06.911Z,1.00
2023-03-01T12:25:39.446Z,1.00
2023-03-01T12:26:13.278Z,1.00
2023-03-01T12:26:44.432Z,1.00
2023-03-01T12:27:16.970Z,1.00
2023-03-01T12:27:49.437Z,1.00
2023-03-01T12:28:22.008Z,1.00
2023-03-01T12:28:54.514Z,1.00
2023-03-01T12:29:26.997Z,1.00
2023-03-01T12:29:59.467Z,1.00
2023-03-01T12:30:31.976Z,1.00
2023-03-01T12:31:04.532Z,1.00
2023-03-01T12:31:37.121Z,1.00
2023-03-01T12:32:09.636Z,1.00
2023-03-01T12:32:42.092Z,1.00
2023-03-01T12:33:14.579Z,1.00
2023-03-01T12:33:47.063Z,1.00
2023-03-01T12:34:19.531Z,1.00
2023-03-01T12:34:51.993Z,1.00
2023-03-01T12:35:24.480Z,1.00
2023-03-01T12:35:56.998Z,1.00
2023-03-01T12:36:29.741Z,1.00
2023-03-01T12:37:02.029Z,1.00
2023-03-01T12:37:34.491Z,1.00
2023-03-01T12:38:06.985Z,1.00
2023-03-01T12:38:39.465Z,1.00
2023-03-01T12:39:11.958Z,1.00
2023-03-01T12:39:44.426Z,1.00
2023-03-01T12:40:16.963Z,1.00
2023-03-01T12:40:49.444Z,1.00
2023-03-01T12:41:21.921Z,1.00
2023-03-01T12:41:54.401Z,1.00
2023-03-01T12:42:26.917Z,1.00
2023-03-01T12:42:59.356Z,1.00
2023-03-01T12:43:31.856Z,1.00
2023-03-01T12:44:04.328Z,1.00
2023-03-01T12:44:36.800Z,1.00
2023-03-01T12:45:09.295Z,1.00
2023-03-01T12:45:41.804Z,1.00
2023-03-01T12:46:14.279Z,1.00
2023-03-01T12:46:46.756Z,1.00
2023-03-01T12:47:19.239Z,1.00
2023-03-01T12:47:51.702Z,1.00
2023-03-01T12:48:24.210Z,1.00
2023-03-01T12:48:56.676Z,0.00
2023-03-01T12:49:29.199Z,1.00
2023-03-01T12:50:01.654Z,0.00
2023-03-01T12:50:34.169Z,0.00
2023-03-01T12:51:06.719Z,0.00
2023-03-01T12:51:39.164Z,0.00
2023-03-01T12:52:11.624Z,0.00
2023-03-01T12:52:44.109Z,0.00
2023-03-01T12:53:16.690Z,0.00
2023-03-01T12:53:49.171Z,0.00
2023-03-01T12:54:21.653Z,0.00
2023-03-01T12:54:54.140Z,0.00
2023-03-01T12:55:26.619Z,0.00
2023-03-01T12:55:59.109Z,0.00
2023-03-01T12:56:31.873Z,0.00
2023-03-01T12:57:04.105Z,0.00
2023-03-01T12:57:36.598Z,0.00
2023-03-01T12:58:09.096Z,0.00
2023-03-01T12:58:49.822Z,0.00
2023-03-01T12:59:14.090Z,0.00
2023-03-01T12:59:46.583Z,0.00
2023-03-01T13:00:19.074Z,0.00
2023-03-01T13:00:51.711Z,0.00
2023-03-01T13:01:24.210Z,0.00
2023-03-01T13:01:56.614Z,0.00
2023-03-01T13:02:29.087Z,0.00
2023-03-01T13:03:01.552Z,0.00
2023-03-01T13:03:34.106Z,0.00
2023-03-01T13:04:06.549Z,0.00
2023-03-01T13:04:39.054Z,0.00
2023-03-01T13:05:11.506Z,0.00
2023-03-01T13:05:43.985Z,0.00
2023-03-01T13:06:16.441Z,0.00
2023-03-01T13:06:49.234Z,0.00
2023-03-01T13:07:21.434Z,0.00
2023-03-01T13:07:53.899Z,0.00
2023-03-01T13:08:26.387Z,0.00
2023-03-01T13:08:58.882Z,0.00
2023-03-01T13:09:31.354Z,0.00
2023-03-01T13:10:03.821Z,0.00
2023-03-01T13:10:36.304Z,0.00
2023-03-01T13:11:08.815Z,0.00
2023-03-01T13:11:41.323Z,0.00
2023-03-01T13:12:20.211Z,0.00
2023-03-01T13:12:46.316Z,0.00
2023-03-01T13:13:18.769Z,0.00
2023-03-01T13:13:51.235Z,0.00
2023-03-01T13:14:31.279Z,0.00
2023-03-01T13:15:03.791Z,0.00
2023-03-01T13:15:36.224Z,0.00
2023-03-01T13:16:08.724Z,0.00
2023-03-01T13:16:41.171Z,0.00
2023-03-01T13:17:13.659Z,0.00
2023-03-01T13:17:46.168Z,0.00
2023-03-01T13:18:18.611Z,0.00
2023-03-01T13:18:51.110Z,0.00
2023-03-01T13:19:23.576Z,0.00
2023-03-01T13:19:56.051Z,0.00
2023-03-01T13:20:28.517Z,0.00
2023-03-01T13:21:00.980Z,0.00
2023-03-01T13:21:33.455Z,0.00
2023-03-01T13:22:05.897Z,0.00
2023-03-01T13:22:49.807Z,0.00
2023-03-01T13:23:10.789Z,0.00
2023-03-01T13:23:43.239Z,0.00
2023-03-01T13:24:15.695Z,0.00
2023-03-01T13:24:48.186Z,0.00
2023-03-01T13:25:20.735Z,0.00
2023-03-01T13:25:53.209Z,0.00
2023-03-01T13:26:25.715Z,0.00
2023-03-01T13:26:58.205Z,0.00
2023-03-01T13:27:30.706Z,0.00
2023-03-01T13:28:03.179Z,0.00
2023-03-01T13:28:35.645Z,0.00
2023-03-01T13:29:08.093Z,0.00
2023-03-01T13:29:40.612Z,0.00
2023-03-01T13:30:13.073Z,0.00
2023-03-01T13:30:45.549Z,0.00
2023-03-01T13:31:18.015Z,0.00
2023-03-01T13:31:50.731Z,0.00
2023-03-01T13:32:28.831Z,0.00
2023-03-01T13:32:55.641Z,0.00
2023-03-01T13:33:27.940Z,0.00
2023-03-01T13:34:00.444Z,0.00
2023-03-01T13:34:32.954Z,0.00
2023-03-01T13:35:05.456Z,0.00
2023-03-01T13:35:37.934Z,0.00
2023-03-01T13:36:10.422Z,0.00
2023-03-01T13:36:42.888Z,0.00
2023-03-01T13:37:15.311Z,0.00
2023-03-01T13:37:47.825Z,0.00
2023-03-01T13:38:20.254Z,0.00
2023-03-01T13:38:52.696Z,0.00
2023-03-01T13:39:25.145Z,0.00
2023-03-01T13:39:57.615Z,0.00
2023-03-01T13:40:30.058Z,0.00
2023-03-01T13:41:02.569Z,0.00
2023-03-01T13:41:35.133Z,0.00
2023-03-01T13:42:07.595Z,0.00
2023-03-01T13:42:40.076Z,0.00
2023-03-01T13:43:12.537Z,0.00
2023-03-01T13:43:45.003Z,0.00
2023-03-01T13:44:17.485Z,0.00
2023-03-01T13:44:49.950Z,0.00
2023-03-01T13:45:22.507Z,0.00
2023-03-01T13:45:55.178Z,0.00
2023-03-01T13:46:27.693Z,0.00
2023-03-01T13:47:00.184Z,0.00
2023-03-01T13:47:32.677Z,0.00
2023-03-01T13:48:05.116Z,0.00
2023-03-01T13:48:37.582Z,0.00
2023-03-01T13:49:10.136Z,0.00
2023-03-01T13:49:46.605Z,0.00
2023-03-01T13:50:15.079Z,0.00
2023-03-01T13:50:47.614Z,0.00
2023-03-01T13:51:20.078Z,0.00
2023-03-01T13:51:52.662Z,0.00
2023-03-01T13:52:24.998Z,0.00
2023-03-01T13:52:57.467Z,0.00
2023-03-01T13:53:29.950Z,0.00
2023-03-01T13:54:02.433Z,0.00
2023-03-01T13:54:34.899Z,0.00
2023-03-01T13:55:07.375Z,0.00
2023-03-01T13:55:39.846Z,0.00
2023-03-01T13:56:12.297Z,0.00
2023-03-01T13:56:44.972Z,0.00
2023-03-01T13:57:17.473Z,0.00
2023-03-01T13:57:49.941Z,0.00
2023-03-01T13:58:22.416Z,0.00
2023-03-01T13:58:54.852Z,0.00
2023-03-01T13:59:27.355Z,0.00
2023-03-01T13:59:59.776Z,0.00
2023-03-01T14:00:32.243Z,0.00
2023-03-01T14:01:04.806Z,0.00
2023-03-01T14:01:37.404Z,0.00
2023-03-01T14:02:09.750Z,0.00
2023-03-01T14:02:42.208Z,0.00
2023-03-01T14:03:14.657Z,0.00
2023-03-01T14:03:47.177Z,0.00
2023-03-01T14:04:19.630Z,0.00
2023-03-01T14:04:52.119Z,0.00
2023-03-01T14:05:24.584Z,0.00
2023-03-01T14:06:04.633Z,0.00
2023-03-01T14:06:29.494Z,0.00
2023-03-01T14:07:01.987Z,0.00
2023-03-01T14:07:34.469Z,0.00
2023-03-01T14:08:06.933Z,0.00
2023-03-01T14:08:39.445Z,0.00
2023-03-01T14:09:11.919Z,0.00
2023-03-01T14:09:44.368Z,0.00
2023-03-01T14:10:16.868Z,0.00
2023-03-01T14:10:49.337Z,0.00